sensor_id;sensor_type;location;lat;lon;timestamp;pressure;altitude;pressure_sealevel;temperature;humidity
7754;BME280;3921;42.266;23.122;2023-01-28T07:48:05;95338.75;;;3.82;74.76
7754;BME280;3921;42.266;23.122;2023-01-28T07:50:34;95250.91;;;3.32;73.85
7754;BME280;3921;42.266;23.122;2023-01-28T07:53:03;95354.72;;;3.95;74.26
7754;BME280;3921;42.266;23.122;2023-01-28T07:55:30;95275.16;;;3.45;73.11
7754;BME280;3921;42.266;23.122;2023-01-28T07:58:01;95202.34;;;3.01;73.25
7754;BME280;3921;42.266;23.122;2023-01-28T08:00:30;95195.72;;;3.00;72.73
7754;BME280;3921;42.266;23.122;2023-01-28T08:02:59;95281.59;;;3.35;73.51
7754;BME280;3921;42.266;23.122;2023-01-28T08:05:32;95042.38;;;1.93;72.81
7754;BME280;3921;42.266;23.122;2023-01-28T08:08:03;94994.53;;;1.54;72.04
7754;BME280;3921;42.266;23.122;2023-01-28T08:10:30;95094.34;;;2.30;71.54
7754;BME280;3921;42.266;23.122;2023-01-28T08:12:57;94842.25;;;0.89;71.91
7754;BME280;3921;42.266;23.122;2023-01-28T08:15:27;95276.88;;;3.49;71.89
7754;BME280;3921;42.266;23.122;2023-01-28T08:17:57;94856.38;;;0.93;71.67
7754;BME280;3921;42.266;23.122;2023-01-28T08:20:26;95320.53;;;3.83;72.05
7754;BME280;3921;42.266;23.122;2023-01-28T08:23:03;95118.59;;;2.45;71.09
7754;BME280;3921;42.266;23.122;2023-01-28T08:25:30;94945.38;;;1.30;71.32
7754;BME280;3921;42.266;23.122;2023-01-28T08:27:58;95282.53;;;3.42;71.27
7754;BME280;3921;42.266;23.122;2023-01-28T08:30:25;95271.94;;;3.51;71.50
7754;BME280;3921;42.266;23.122;2023-01-28T08:32:54;95035.09;;;2.00;71.80
7754;BME280;3921;42.266;23.122;2023-01-28T08:35:21;95294.31;;;3.52;72.37
7754;BME280;3921;42.266;23.122;2023-01-28T08:37:48;95010.88;;;1.85;71.94
7754;BME280;3921;42.266;23.122;2023-01-28T08:40:17;95363.91;;;3.99;71.70
7754;BME280;3921;42.266;23.122;2023-01-28T08:42:46;94996.59;;;1.74;71.21
7754;BME280;3921;42.266;23.122;2023-01-28T08:45:13;95323.50;;;3.62;71.81
7754;BME280;3921;42.266;23.122;2023-01-28T08:47:47;95303.66;;;3.65;70.75
7754;BME280;3921;42.266;23.122;2023-01-28T08:50:15;95043.94;;;1.88;72.29
7754;BME280;3921;42.266;23.122;2023-01-28T08:52:42;95274.00;;;3.28;71.39
7754;BME280;3921;42.266;23.122;2023-01-28T08:55:09;94979.44;;;1.42;71.40
7754;BME280;3921;42.266;23.122;2023-01-28T08:57:38;95374.88;;;4.10;71.99
7754;BME280;3921;42.266;23.122;2023-01-28T09:00:07;95283.59;;;3.55;71.99
7754;BME280;3921;42.266;23.122;2023-01-28T09:02:35;95257.03;;;3.51;72.22
7754;BME280;3921;42.266;23.122;2023-01-28T09:05:03;95029.47;;;2.07;72.50
7754;BME280;3921;42.266;23.122;2023-01-28T09:07:30;95102.47;;;2.65;72.44
7754;BME280;3921;42.266;23.122;2023-01-28T09:09:57;95027.13;;;2.13;73.17
7754;BME280;3921;42.266;23.122;2023-01-28T09:12:24;95222.91;;;3.39;72.42
7754;BME280;3921;42.266;23.122;2023-01-28T09:14:53;95203.09;;;2.97;71.53
7754;BME280;3921;42.266;23.122;2023-01-28T09:17:20;95378.47;;;4.28;71.95
7754;BME280;3921;42.266;23.122;2023-01-28T09:19:47;95385.09;;;4.25;72.13
7754;BME280;3921;42.266;23.122;2023-01-28T09:22:14;95311.19;;;3.68;71.68
7754;BME280;3921;42.266;23.122;2023-01-28T09:24:41;95157.22;;;2.76;71.93
7754;BME280;3921;42.266;23.122;2023-01-28T09:27:08;95089.75;;;2.50;72.33
7754;BME280;3921;42.266;23.122;2023-01-28T09:29:35;94924.22;;;1.45;72.55
7754;BME280;3921;42.266;23.122;2023-01-28T09:32:04;95350.16;;;4.19;71.82
7754;BME280;3921;42.266;23.122;2023-01-28T09:34:31;95118.31;;;2.75;72.00
7754;BME280;3921;42.266;23.122;2023-01-28T09:37:01;95103.53;;;2.80;71.98
7754;BME280;3921;42.266;23.122;2023-01-28T09:39:29;95227.28;;;3.54;72.25
7754;BME280;3921;42.266;23.122;2023-01-28T09:42:08;95095.06;;;2.69;71.60
7754;BME280;3921;42.266;23.122;2023-01-28T09:44:52;95392.22;;;4.57;71.73
7754;BME280;3921;42.266;23.122;2023-01-28T09:47:27;95172.25;;;3.32;71.24
7754;BME280;3921;42.266;23.122;2023-01-28T09:50:00;94946.69;;;1.98;70.42
7754;BME280;3921;42.266;23.122;2023-01-28T09:52:33;95006.06;;;2.37;70.15
7754;BME280;3921;42.266;23.122;2023-01-28T09:55:03;95034.19;;;2.40;70.60
7754;BME280;3921;42.266;23.122;2023-01-28T09:57:38;95219.19;;;3.65;70.58
7754;BME280;3921;42.266;23.122;2023-01-28T10:00:13;94827.47;;;1.32;70.03
7754;BME280;3921;42.266;23.122;2023-01-28T10:02:54;95338.75;;;4.31;70.46
7754;BME280;3921;42.266;23.122;2023-01-28T10:05:29;95374.81;;;4.59;70.52
7754;BME280;3921;42.266;23.122;2023-01-28T10:08:10;94848.75;;;1.24;70.66
7754;BME280;3921;42.266;23.122;2023-01-28T10:10:47;95231.72;;;3.71;70.78
7754;BME280;3921;42.266;23.122;2023-01-28T10:13:23;95340.44;;;4.33;70.24
7754;BME280;3921;42.266;23.122;2023-01-28T10:16:23;95349.84;;;4.52;70.86
7754;BME280;3921;42.266;23.122;2023-01-28T10:18:57;95289.66;;;4.20;70.92
7754;BME280;3921;42.266;23.122;2023-01-28T10:21:31;95288.13;;;4.29;71.01
7754;BME280;3921;42.266;23.122;2023-01-28T10:24:05;95244.50;;;3.94;70.77
7754;BME280;3921;42.266;23.122;2023-01-28T10:26:37;95330.91;;;4.62;71.01
7754;BME280;3921;42.266;23.122;2023-01-28T10:29:12;95074.88;;;2.97;71.60
7754;BME280;3921;42.266;23.122;2023-01-28T10:31:44;95097.13;;;3.42;69.34
7754;BME280;3921;42.266;23.122;2023-01-28T10:34:18;94815.66;;;1.66;69.37
7754;BME280;3921;42.266;23.122;2023-01-28T10:36:46;94840.41;;;1.65;69.65
7754;BME280;3921;42.266;23.122;2023-01-28T10:39:13;95150.53;;;3.70;69.42
7754;BME280;3921;42.266;23.122;2023-01-28T10:41:41;95217.38;;;4.08;69.45
7754;BME280;3921;42.266;23.122;2023-01-28T10:44:13;95099.72;;;3.50;69.29
7754;BME280;3921;42.266;23.122;2023-01-28T10:46:43;95008.84;;;3.07;68.99
7754;BME280;3921;42.266;23.122;2023-01-28T10:49:13;95268.69;;;4.59;68.22
7754;BME280;3921;42.266;23.122;2023-01-28T10:51:42;95258.81;;;4.67;68.71
7754;BME280;3921;42.266;23.122;2023-01-28T10:54:20;95325.09;;;5.24;68.37
7754;BME280;3921;42.266;23.122;2023-01-28T10:56:53;95101.75;;;3.77;68.93
7754;BME280;3921;42.266;23.122;2023-01-28T10:59:25;95214.50;;;4.41;68.71
7754;BME280;3921;42.266;23.122;2023-01-28T11:01:53;95036.50;;;3.28;68.06
7754;BME280;3921;42.266;23.122;2023-01-28T11:04:23;95171.91;;;4.18;67.88
7754;BME280;3921;42.266;23.122;2023-01-28T11:06:57;95085.91;;;3.67;67.05
7754;BME280;3921;42.266;23.122;2023-01-28T11:09:27;95069.44;;;3.74;66.98
7754;BME280;3921;42.266;23.122;2023-01-28T11:12:08;95221.28;;;4.51;66.67
7754;BME280;3921;42.266;23.122;2023-01-28T11:14:35;95253.97;;;4.76;66.92
7754;BME280;3921;42.266;23.122;2023-01-28T11:17:02;94798.03;;;1.96;66.82
7754;BME280;3921;42.266;23.122;2023-01-28T11:19:34;95282.56;;;5.10;67.46
7754;BME280;3921;42.266;23.122;2023-01-28T11:22:03;95103.72;;;4.01;67.92
7754;BME280;3921;42.266;23.122;2023-01-28T11:24:31;95320.09;;;5.22;67.48
7754;BME280;3921;42.266;23.122;2023-01-28T11:27:12;95137.09;;;4.17;67.40
7754;BME280;3921;42.266;23.122;2023-01-28T11:29:42;94941.75;;;3.01;66.35
7754;BME280;3921;42.266;23.122;2023-01-28T11:32:17;95186.22;;;4.35;66.35
7754;BME280;3921;42.266;23.122;2023-01-28T11:34:48;95300.09;;;5.16;66.43
7754;BME280;3921;42.266;23.122;2023-01-28T11:37:20;95330.91;;;5.24;66.49
7754;BME280;3921;42.266;23.122;2023-01-28T11:39:48;94829.81;;;2.23;65.78
7754;BME280;3921;42.266;23.122;2023-01-28T11:42:17;95146.06;;;4.06;65.92
7754;BME280;3921;42.266;23.122;2023-01-28T11:44:44;95147.84;;;4.14;66.90
7754;BME280;3921;42.266;23.122;2023-01-28T11:47:31;94903.13;;;2.60;65.94
7754;BME280;3921;42.266;23.122;2023-01-28T11:50:17;95286.06;;;5.24;66.03
7754;BME280;3921;42.266;23.122;2023-01-28T11:52:54;94882.47;;;2.61;65.53
7754;BME280;3921;42.266;23.122;2023-01-28T11:55:39;95153.13;;;4.37;66.42
7754;BME280;3921;42.266;23.122;2023-01-28T11:58:19;95320.03;;;5.16;66.40
7754;BME280;3921;42.266;23.122;2023-01-28T12:00:53;94741.72;;;1.88;65.88
7754;BME280;3921;42.266;23.122;2023-01-28T12:03:40;95223.22;;;4.74;65.97
7754;BME280;3921;42.266;23.122;2023-01-28T12:06:24;95028.50;;;3.49;67.08
7754;BME280;3921;42.266;23.122;2023-01-28T12:09:06;95192.03;;;4.35;67.08
7754;BME280;3921;42.266;23.122;2023-01-28T12:11:44;95094.47;;;3.89;66.18
7754;BME280;3921;42.266;23.122;2023-01-28T12:14:40;95070.06;;;3.61;66.33
7754;BME280;3921;42.266;23.122;2023-01-28T12:17:20;94950.19;;;3.13;65.99
7754;BME280;3921;42.266;23.122;2023-01-28T12:20:03;94985.69;;;3.08;65.76
7754;BME280;3921;42.266;23.122;2023-01-28T12:22:54;95149.88;;;4.44;65.69
7754;BME280;3921;42.266;23.122;2023-01-28T12:25:38;95040.97;;;3.51;66.28
7754;BME280;3921;42.266;23.122;2023-01-28T12:28:17;95265.81;;;4.95;65.71
7754;BME280;3921;42.266;23.122;2023-01-28T12:31:13;95041.88;;;3.59;65.38
7754;BME280;3921;42.266;23.122;2023-01-28T12:33:53;95306.13;;;5.35;65.49
7754;BME280;3921;42.266;23.122;2023-01-28T12:36:34;94830.81;;;2.34;65.92
7754;BME280;3921;42.266;23.122;2023-01-28T12:39:15;95235.13;;;4.96;66.77
7754;BME280;3921;42.266;23.122;2023-01-28T12:41:53;95210.84;;;4.80;66.51
7754;BME280;3921;42.266;23.122;2023-01-28T12:44:25;95224.91;;;4.75;67.07
7754;BME280;3921;42.266;23.122;2023-01-28T12:46:59;95132.09;;;4.15;66.28
7754;BME280;3921;42.266;23.122;2023-01-28T12:49:32;95215.84;;;4.80;66.16
7754;BME280;3921;42.266;23.122;2023-01-28T12:52:03;95116.22;;;4.06;66.43
7754;BME280;3921;42.266;23.122;2023-01-28T12:54:38;95099.41;;;3.86;65.12
7754;BME280;3921;42.266;23.122;2023-01-28T12:57:41;94793.09;;;1.98;64.99
7754;BME280;3921;42.266;23.122;2023-01-28T13:00:22;95246.53;;;4.79;65.19
7754;BME280;3921;42.266;23.122;2023-01-28T13:02:59;95129.56;;;4.11;65.86
7754;BME280;3921;42.266;23.122;2023-01-28T13:05:32;95262.56;;;5.01;65.12
7754;BME280;3921;42.266;23.122;2023-01-28T13:08:02;95200.75;;;4.66;63.99
7754;BME280;3921;42.266;23.122;2023-01-28T13:10:36;95195.84;;;4.72;64.42
7754;BME280;3921;42.266;23.122;2023-01-28T13:13:06;95255.81;;;4.92;64.66
7754;BME280;3921;42.266;23.122;2023-01-28T13:15:40;95270.81;;;4.98;64.27
7754;BME280;3921;42.266;23.122;2023-01-28T13:18:29;95351.31;;;5.63;64.72
7754;BME280;3921;42.266;23.122;2023-01-28T13:20:57;95209.19;;;4.79;64.65
7754;BME280;3921;42.266;23.122;2023-01-28T13:23:35;95271.91;;;5.20;65.16
7754;BME280;3921;42.266;23.122;2023-01-28T13:26:09;95249.41;;;5.13;65.34
7754;BME280;3921;42.266;23.122;2023-01-28T13:28:38;95241.13;;;5.15;65.39
7754;BME280;3921;42.266;23.122;2023-01-28T13:31:08;95236.78;;;4.97;65.55
7754;BME280;3921;42.266;23.122;2023-01-28T13:33:44;94796.97;;;2.36;65.08
7754;BME280;3921;42.266;23.122;2023-01-28T13:36:50;95370.66;;;5.88;64.58
7754;BME280;3921;42.266;23.122;2023-01-28T13:39:24;95372.41;;;5.92;63.38
7754;BME280;3921;42.266;23.122;2023-01-28T13:41:54;95381.28;;;5.72;63.83
7754;BME280;3921;42.266;23.122;2023-01-28T13:45:07;94894.22;;;2.73;64.13
7754;BME280;3921;42.266;23.122;2023-01-28T13:47:45;95058.66;;;3.75;64.23
7754;BME280;3921;42.266;23.122;2023-01-28T13:50:20;95224.97;;;4.81;65.16
7754;BME280;3921;42.266;23.122;2023-01-28T13:52:52;95346.25;;;5.56;65.61
7754;BME280;3921;42.266;23.122;2023-01-28T13:55:24;95363.75;;;5.63;65.75
7754;BME280;3921;42.266;23.122;2023-01-28T13:58:17;95100.91;;;3.77;65.26
7754;BME280;3921;42.266;23.122;2023-01-28T14:01:17;95196.25;;;4.39;65.46
7754;BME280;3921;42.266;23.122;2023-01-28T14:07:09;95413.69;;;5.72;65.08
7754;BME280;3921;42.266;23.122;2023-01-28T14:13:22;95404.47;;;5.65;64.18
7754;BME280;3921;42.266;23.122;2023-01-28T14:16:26;95401.16;;;5.66;64.75
7754;BME280;3921;42.266;23.122;2023-01-28T14:18:58;95340.72;;;5.12;64.50
7754;BME280;3921;42.266;23.122;2023-01-28T14:21:29;95254.66;;;4.66;64.84
7754;BME280;3921;42.266;23.122;2023-01-28T14:23:58;95099.16;;;3.68;64.95
7754;BME280;3921;42.266;23.122;2023-01-28T14:26:39;95256.19;;;4.58;65.34
7754;BME280;3921;42.266;23.122;2023-01-28T14:29:23;94927.03;;;2.57;64.76
7754;BME280;3921;42.266;23.122;2023-01-28T14:31:54;95315.69;;;5.01;65.04
7754;BME280;3921;42.266;23.122;2023-01-28T14:34:25;95204.28;;;4.20;65.08
7754;BME280;3921;42.266;23.122;2023-01-28T14:36:55;95144.25;;;3.94;65.16
7754;BME280;3921;42.266;23.122;2023-01-28T14:39:25;95106.63;;;3.69;65.81
7754;BME280;3921;42.266;23.122;2023-01-28T14:41:56;94869.63;;;2.31;65.18
7754;BME280;3921;42.266;23.122;2023-01-28T14:44:28;95228.59;;;4.41;65.68
7754;BME280;3921;42.266;23.122;2023-01-28T14:47:17;95254.28;;;4.40;65.85
7754;BME280;3921;42.266;23.122;2023-01-28T14:50:02;95190.84;;;4.07;64.94
7754;BME280;3921;42.266;23.122;2023-01-28T14:55:34;95280.38;;;4.65;66.01
7754;BME280;3921;42.266;23.122;2023-01-28T14:58:07;94994.50;;;2.87;66.08
7754;BME280;3921;42.266;23.122;2023-01-28T15:00:52;95282.38;;;4.33;66.39
7754;BME280;3921;42.266;23.122;2023-01-28T15:03:24;94996.19;;;2.40;66.05
7754;BME280;3921;42.266;23.122;2023-01-28T15:06:11;95181.06;;;3.62;66.68
7754;BME280;3921;42.266;23.122;2023-01-28T15:08:38;94994.88;;;2.60;66.28
7754;BME280;3921;42.266;23.122;2023-01-28T15:11:08;95315.97;;;4.61;66.79
7754;BME280;3921;42.266;23.122;2023-01-28T15:13:38;95376.88;;;4.84;67.62
7754;BME280;3921;42.266;23.122;2023-01-28T15:16:15;95418.84;;;5.17;67.47
7754;BME280;3921;42.266;23.122;2023-01-28T15:18:49;95057.38;;;2.89;67.28
7754;BME280;3921;42.266;23.122;2023-01-28T15:21:19;95185.06;;;3.55;67.06
7754;BME280;3921;42.266;23.122;2023-01-28T15:23:50;95427.81;;;5.07;67.62
7754;BME280;3921;42.266;23.122;2023-01-28T15:26:20;95522.13;;;5.39;67.38
7754;BME280;3921;42.266;23.122;2023-01-28T15:28:48;95001.09;;;2.35;67.06
7754;BME280;3921;42.266;23.122;2023-01-28T15:31:19;95442.69;;;5.01;67.55
7754;BME280;3921;42.266;23.122;2023-01-28T15:33:56;95096.97;;;2.83;67.43
7754;BME280;3921;42.266;23.122;2023-01-28T15:36:23;95289.31;;;3.97;67.38
7754;BME280;3921;42.266;23.122;2023-01-28T15:38:51;95366.94;;;4.33;68.04
7754;BME280;3921;42.266;23.122;2023-01-28T15:41:20;95169.63;;;3.22;67.98
7754;BME280;3921;42.266;23.122;2023-01-28T15:43:50;95485.28;;;5.21;67.88
7754;BME280;3921;42.266;23.122;2023-01-28T15:46:18;95388.69;;;4.44;68.72
7754;BME280;3921;42.266;23.122;2023-01-28T15:48:56;95471.75;;;5.02;68.43
7754;BME280;3921;42.266;23.122;2023-01-28T15:51:27;95172.75;;;3.10;68.99
7754;BME280;3921;42.266;23.122;2023-01-28T15:53:59;95353.31;;;4.09;68.24
7754;BME280;3921;42.266;23.122;2023-01-28T15:56:30;95206.88;;;3.22;69.12
7754;BME280;3921;42.266;23.122;2023-01-28T15:59:07;95114.69;;;2.58;68.69
7754;BME280;3921;42.266;23.122;2023-01-28T16:01:35;95015.47;;;2.09;68.72
7754;BME280;3921;42.266;23.122;2023-01-28T16:04:03;95003.78;;;2.02;68.61
7754;BME280;3921;42.266;23.122;2023-01-28T16:06:34;95345.59;;;3.95;67.86
7754;BME280;3921;42.266;23.122;2023-01-28T16:09:04;95435.78;;;4.34;68.54
7754;BME280;3921;42.266;23.122;2023-01-28T16:11:35;95446.84;;;4.49;68.35
7754;BME280;3921;42.266;23.122;2023-01-28T16:14:06;95470.25;;;4.61;66.97
7754;BME280;3921;42.266;23.122;2023-01-28T16:16:35;95290.13;;;3.50;67.37
7754;BME280;3921;42.266;23.122;2023-01-28T16:19:04;95424.91;;;4.29;67.52
7754;BME280;3921;42.266;23.122;2023-01-28T16:21:36;95433.81;;;4.16;68.32
7754;BME280;3921;42.266;23.122;2023-01-28T16:24:06;95476.31;;;4.30;68.15
7754;BME280;3921;42.266;23.122;2023-01-28T16:26:55;95458.78;;;4.22;68.40
7754;BME280;3921;42.266;23.122;2023-01-28T16:29:22;95442.19;;;4.21;67.06
7754;BME280;3921;42.266;23.122;2023-01-28T16:31:49;95378.50;;;3.82;67.27
7754;BME280;3921;42.266;23.122;2023-01-28T16:34:16;95442.22;;;4.24;67.60
7754;BME280;3921;42.266;23.122;2023-01-28T16:36:45;95442.91;;;4.14;66.83
7754;BME280;3921;42.266;23.122;2023-01-28T16:39:12;95395.81;;;3.78;67.26
7754;BME280;3921;42.266;23.122;2023-01-28T16:41:41;95020.22;;;1.58;66.83
7754;BME280;3921;42.266;23.122;2023-01-28T16:44:11;95500.47;;;4.35;67.07
7754;BME280;3921;42.266;23.122;2023-01-28T16:46:39;95056.25;;;1.45;68.07
7754;BME280;3921;42.266;23.122;2023-01-28T16:49:06;95313.63;;;3.22;67.75
7754;BME280;3921;42.266;23.122;2023-01-28T16:51:34;95372.53;;;3.72;67.43
7754;BME280;3921;42.266;23.122;2023-01-28T16:54:03;95482.03;;;4.24;67.23
7754;BME280;3921;42.266;23.122;2023-01-28T16:56:32;95442.78;;;4.08;66.93
7754;BME280;3921;42.266;23.122;2023-01-28T16:59:00;95273.50;;;3.02;67.43
7754;BME280;3921;42.266;23.122;2023-01-28T17:01:27;95366.16;;;3.43;67.76
7754;BME280;3921;42.266;23.122;2023-01-28T17:03:54;95603.22;;;4.75;68.15
7754;BME280;3921;42.266;23.122;2023-01-28T17:06:22;95616.56;;;4.78;67.82
7754;BME280;3921;42.266;23.122;2023-01-28T17:08:49;95241.16;;;2.56;68.03
7754;BME280;3921;42.266;23.122;2023-01-28T17:11:17;95374.66;;;3.53;67.72
7754;BME280;3921;42.266;23.122;2023-01-28T17:13:44;95373.56;;;3.38;67.21
7754;BME280;3921;42.266;23.122;2023-01-28T17:16:12;95485.06;;;4.08;66.79
7754;BME280;3921;42.266;23.122;2023-01-28T17:18:39;95282.22;;;2.81;66.50
7754;BME280;3921;42.266;23.122;2023-01-28T17:21:06;95323.28;;;3.09;67.15
7754;BME280;3921;42.266;23.122;2023-01-28T17:23:33;95071.41;;;1.59;66.54
7754;BME280;3921;42.266;23.122;2023-01-28T17:26:04;95449.72;;;3.80;66.83
7754;BME280;3921;42.266;23.122;2023-01-28T17:28:32;95609.22;;;4.86;66.84
7754;BME280;3921;42.266;23.122;2023-01-28T17:31:04;95369.38;;;3.37;67.24
7754;BME280;3921;42.266;23.122;2023-01-28T17:33:31;95490.91;;;4.11;67.55
7754;BME280;3921;42.266;23.122;2023-01-28T17:35:59;95503.47;;;4.17;66.82
7754;BME280;3921;42.266;23.122;2023-01-28T17:38:26;95062.16;;;1.50;65.88
7754;BME280;3921;42.266;23.122;2023-01-28T17:40:53;95216.53;;;2.25;66.36
7754;BME280;3921;42.266;23.122;2023-01-28T17:43:20;95438.63;;;3.64;66.79
7754;BME280;3921;42.266;23.122;2023-01-28T17:45:49;95556.72;;;4.29;66.96
7754;BME280;3921;42.266;23.122;2023-01-28T17:48:16;95483.00;;;3.88;66.34
7754;BME280;3921;42.266;23.122;2023-01-28T17:50:43;95257.69;;;2.56;64.90
7754;BME280;3921;42.266;23.122;2023-01-28T17:53:11;95556.28;;;4.06;65.52
7754;BME280;3921;42.266;23.122;2023-01-28T17:55:38;95640.63;;;4.78;65.84
7754;BME280;3921;42.266;23.122;2023-01-28T17:58:05;95305.97;;;2.70;66.01
7754;BME280;3921;42.266;23.122;2023-01-28T18:00:32;95184.38;;;1.90;66.50
7754;BME280;3921;42.266;23.122;2023-01-28T18:03:04;95331.84;;;2.83;66.96
7754;BME280;3921;42.266;23.122;2023-01-28T18:05:31;95486.78;;;3.69;67.05
7754;BME280;3921;42.266;23.122;2023-01-28T18:07:58;95402.00;;;3.15;67.05
7754;BME280;3921;42.266;23.122;2023-01-28T18:10:25;95270.63;;;2.41;67.01
7754;BME280;3921;42.266;23.122;2023-01-28T18:12:52;95641.88;;;4.58;66.57
7754;BME280;3921;42.266;23.122;2023-01-28T18:15:19;95556.50;;;4.18;65.91
7754;BME280;3921;42.266;23.122;2023-01-28T18:18:00;95304.19;;;2.64;65.81
7754;BME280;3921;42.266;23.122;2023-01-28T18:20:28;95552.94;;;4.04;67.30
7754;BME280;3921;42.266;23.122;2023-01-28T18:22:56;95562.69;;;3.94;66.84
7754;BME280;3921;42.266;23.122;2023-01-28T18:25:23;95502.53;;;3.70;66.61
7754;BME280;3921;42.266;23.122;2023-01-28T18:27:52;95545.06;;;3.84;67.24
7754;BME280;3921;42.266;23.122;2023-01-28T18:30:22;95445.28;;;3.25;67.58
7754;BME280;3921;42.266;23.122;2023-01-28T18:32:49;95545.97;;;3.87;66.55
7754;BME280;3921;42.266;23.122;2023-01-28T18:35:16;95559.69;;;4.11;66.52
7754;BME280;3921;42.266;23.122;2023-01-28T18:37:44;95589.63;;;4.14;66.32
7754;BME280;3921;42.266;23.122;2023-01-28T18:40:12;95549.44;;;3.95;66.56
7754;BME280;3921;42.266;23.122;2023-01-28T18:42:39;95565.34;;;4.02;66.93
7754;BME280;3921;42.266;23.122;2023-01-28T18:45:07;95572.16;;;4.12;66.42
7754;BME280;3921;42.266;23.122;2023-01-28T18:47:34;95593.94;;;4.24;66.39
7754;BME280;3921;42.266;23.122;2023-01-28T18:50:02;95560.38;;;4.04;66.38
7754;BME280;3921;42.266;23.122;2023-01-28T18:52:29;95310.56;;;2.55;65.77
7754;BME280;3921;42.266;23.122;2023-01-28T18:54:58;95665.53;;;4.79;66.40
7754;BME280;3921;42.266;23.122;2023-01-28T18:57:25;95692.00;;;4.74;66.16
7754;BME280;3921;42.266;23.122;2023-01-28T18:59:52;95204.78;;;1.80;65.96
7754;BME280;3921;42.266;23.122;2023-01-28T19:02:20;95589.38;;;4.02;66.41
7754;BME280;3921;42.266;23.122;2023-01-28T19:04:47;95601.72;;;3.98;66.18
7754;BME280;3921;42.266;23.122;2023-01-28T19:07:15;95178.63;;;1.55;66.31
7754;BME280;3921;42.266;23.122;2023-01-28T19:09:42;95353.09;;;2.70;65.40
7754;BME280;3921;42.266;23.122;2023-01-28T19:12:10;95674.47;;;4.29;66.26
7754;BME280;3921;42.266;23.122;2023-01-28T19:14:37;95729.81;;;4.58;66.40
7754;BME280;3921;42.266;23.122;2023-01-28T19:17:05;95471.59;;;3.18;66.22
7754;BME280;3921;42.266;23.122;2023-01-28T19:19:33;95151.69;;;1.32;65.96
7754;BME280;3921;42.266;23.122;2023-01-28T19:22:06;95102.47;;;0.77;65.92
7754;BME280;3921;42.266;23.122;2023-01-28T19:24:33;95424.19;;;2.70;66.05
7754;BME280;3921;42.266;23.122;2023-01-28T19:27:00;95194.69;;;1.38;66.03
7754;BME280;3921;42.266;23.122;2023-01-28T19:29:29;95419.94;;;2.64;66.58
7754;BME280;3921;42.266;23.122;2023-01-28T19:31:56;95719.84;;;4.57;66.55
7754;BME280;3921;42.266;23.122;2023-01-28T19:34:23;95162.53;;;1.04;66.59
7754;BME280;3921;42.266;23.122;2023-01-28T19:36:50;95401.09;;;2.37;67.08
7754;BME280;3921;42.266;23.122;2023-01-28T19:39:17;95295.22;;;1.64;67.06
7754;BME280;3921;42.266;23.122;2023-01-28T19:41:48;95181.44;;;1.02;67.34
7754;BME280;3921;42.266;23.122;2023-01-28T19:44:15;95058.63;;;0.38;67.80
7754;BME280;3921;42.266;23.122;2023-01-28T19:46:47;95583.72;;;3.33;67.93
7754;BME280;3921;42.266;23.122;2023-01-28T19:49:14;95736.22;;;4.47;67.76
7754;BME280;3921;42.266;23.122;2023-01-28T19:51:41;95204.22;;;1.22;67.58
7754;BME280;3921;42.266;23.122;2023-01-28T19:54:09;95517.59;;;3.04;67.98
7754;BME280;3921;42.266;23.122;2023-01-28T19:56:36;95643.63;;;3.83;67.83
7754;BME280;3921;42.266;23.122;2023-01-28T19:59:11;95183.31;;;0.79;68.09
7754;BME280;3921;42.266;23.122;2023-01-28T20:01:39;95624.38;;;3.73;68.15
7754;BME280;3921;42.266;23.122;2023-01-28T20:04:08;95662.88;;;3.90;68.79
7754;BME280;3921;42.266;23.122;2023-01-28T20:06:35;95536.22;;;2.86;68.72
7754;BME280;3921;42.266;23.122;2023-01-28T20:09:13;95217.88;;;1.08;68.35
7754;BME280;3921;42.266;23.122;2023-01-28T20:11:44;95479.81;;;2.46;68.74
7754;BME280;3921;42.266;23.122;2023-01-28T20:14:11;95170.94;;;0.79;68.40
7754;BME280;3921;42.266;23.122;2023-01-28T20:16:43;95613.13;;;3.53;68.98
7754;BME280;3921;42.266;23.122;2023-01-28T20:19:15;95416.78;;;2.36;68.28
7754;BME280;3921;42.266;23.122;2023-01-28T20:21:43;95139.63;;;0.80;67.51
7754;BME280;3921;42.266;23.122;2023-01-28T20:24:26;95456.91;;;2.55;66.57
7754;BME280;3921;42.266;23.122;2023-01-28T20:26:53;95454.84;;;2.72;67.23
7754;BME280;3921;42.266;23.122;2023-01-28T20:29:21;95727.69;;;4.36;67.50
7754;BME280;3921;42.266;23.122;2023-01-28T20:31:51;95690.53;;;4.06;67.64
7754;BME280;3921;42.266;23.122;2023-01-28T20:34:21;95253.94;;;1.31;66.74
7754;BME280;3921;42.266;23.122;2023-01-28T20:36:49;95239.84;;;1.27;67.27
7754;BME280;3921;42.266;23.122;2023-01-28T20:39:16;95532.84;;;3.17;66.47
7754;BME280;3921;42.266;23.122;2023-01-28T20:41:44;95670.25;;;3.87;66.53
7754;BME280;3921;42.266;23.122;2023-01-28T20:44:11;95263.31;;;1.43;66.14
7754;BME280;3921;42.266;23.122;2023-01-28T20:46:38;95527.63;;;3.07;66.12
7754;BME280;3921;42.266;23.122;2023-01-28T20:49:08;95192.84;;;0.97;66.16
7754;BME280;3921;42.266;23.122;2023-01-28T20:51:37;95234.00;;;1.25;66.59
7754;BME280;3921;42.266;23.122;2023-01-28T20:54:05;95273.03;;;1.36;66.53
7754;BME280;3921;42.266;23.122;2023-01-28T20:56:32;95461.75;;;2.50;67.10
7754;BME280;3921;42.266;23.122;2023-01-28T20:59:01;95490.94;;;2.60;66.81
7754;BME280;3921;42.266;23.122;2023-01-28T21:01:30;95240.25;;;1.13;66.55
7754;BME280;3921;42.266;23.122;2023-01-28T21:04:01;95326.69;;;1.68;67.29
7754;BME280;3921;42.266;23.122;2023-01-28T21:06:28;95471.56;;;2.46;66.89
7754;BME280;3921;42.266;23.122;2023-01-28T21:08:57;95449.88;;;2.38;66.56
7754;BME280;3921;42.266;23.122;2023-01-28T21:11:25;95514.56;;;2.81;66.99
7754;BME280;3921;42.266;23.122;2023-01-28T21:13:53;95424.91;;;2.31;67.05
7754;BME280;3921;42.266;23.122;2023-01-28T21:16:23;95551.59;;;3.06;66.77
7754;BME280;3921;42.266;23.122;2023-01-28T21:18:51;95621.69;;;3.29;66.87
7754;BME280;3921;42.266;23.122;2023-01-28T21:21:21;95269.16;;;1.14;66.99
7754;BME280;3921;42.266;23.122;2023-01-28T21:23:50;95652.16;;;3.24;67.89
7754;BME280;3921;42.266;23.122;2023-01-28T21:26:20;95255.25;;;1.17;67.57
7754;BME280;3921;42.266;23.122;2023-01-28T21:28:48;95722.00;;;4.04;67.98
7754;BME280;3921;42.266;23.122;2023-01-28T21:31:17;95477.81;;;2.31;68.38
7754;BME280;3921;42.266;23.122;2023-01-28T21:33:47;95592.41;;;3.16;68.30
7754;BME280;3921;42.266;23.122;2023-01-28T21:36:15;95616.31;;;3.12;67.78
7754;BME280;3921;42.266;23.122;2023-01-28T21:38:43;95513.16;;;2.56;67.91
7754;BME280;3921;42.266;23.122;2023-01-28T21:41:10;95383.88;;;1.77;67.74
7754;BME280;3921;42.266;23.122;2023-01-28T21:43:39;95415.63;;;1.91;67.75